Time;durP1;ratioP1;P1;durP2;ratioP2;P2;SDS_P1;SDS_P2;PMS_P1;PMS_P2;Temp;Humidity;BMP_temperature;BMP_pressure;BME280_temperature;BME280_humidity;BME280_pressure;Samples;Min_cycle;Max_cycle;Signal;HPM_P1;HPM_P2
2022/06/28 00:00:09;;;;;;;5.93;4.55;;;;;;;17.57;58.15;101985.75;4900106;28;119392;-70
2022/06/28 00:02:36;;;;;;;5.38;4.30;;;;;;;17.53;58.04;101981.53;4900942;28;119659;-70
2022/06/28 00:05:04;;;;;;;6.95;4.55;;;;;;;17.49;58.21;101990.69;4901580;28;124055;-70
2022/06/28 00:07:32;;;;;;;8.63;4.60;;;;;;;17.45;58.21;101983.78;4896707;28;123717;-70
2022/06/28 00:09:59;;;;;;;7.03;4.82;;;;;;;17.43;58.14;101985.69;4902243;28;118306;-70
2022/06/28 00:12:26;;;;;;;5.07;4.40;;;;;;;17.39;57.97;101984.13;4892648;28;119559;-69
2022/06/28 00:17:40;;;;;;;5.97;4.32;;;;;;;17.29;57.93;101973.91;4905269;28;123866;-70
2022/06/28 00:20:08;;;;;;;6.07;4.15;;;;;;;17.25;58.02;101977.72;4898633;28;119321;-70
2022/06/28 00:22:35;;;;;;;6.28;4.45;;;;;;;17.22;58.08;101977.88;4907817;28;117850;-69
2022/06/28 00:25:03;;;;;;;5.30;4.47;;;;;;;17.18;57.88;101975.44;4903883;28;124405;-69
2022/06/28 00:27:31;;;;;;;4.93;4.43;;;;;;;17.14;57.98;101990.84;4895526;28;123678;-70
2022/06/28 00:29:58;;;;;;;6.25;4.28;;;;;;;17.12;57.95;101992.69;4895188;28;120383;-69
2022/06/28 00:32:26;;;;;;;5.22;4.43;;;;;;;17.08;57.88;101991.13;4899539;28;120066;-68
2022/06/28 00:34:53;;;;;;;6.65;4.55;;;;;;;17.04;57.96;101984.22;4896608;28;124166;-68
2022/06/28 00:37:25;;;;;;;7.20;4.60;;;;;;;17.01;57.99;101989.75;4922734;28;123702;-68
2022/06/28 00:39:53;;;;;;;6.55;4.53;;;;;;;16.97;58.10;101988.19;4897281;28;119056;-68
2022/06/28 00:42:21;;;;;;;5.38;4.40;;;;;;;16.93;58.29;101983.00;4893848;28;117999;-68
2022/06/28 00:44:51;;;;;;;8.73;5.28;;;;;;;16.91;58.23;101990.25;4902706;28;123951;-69
2022/06/28 00:47:18;;;;;;;7.20;5.25;;;;;;;16.88;58.23;101990.41;4902171;28;124250;-68
2022/06/28 00:49:45;;;;;;;9.18;5.15;;;;;;;16.86;58.49;101992.31;4922718;28;118296;-68
2022/06/28 00:52:13;;;;;;;7.30;5.68;;;;;;;16.85;58.56;101990.56;4901968;28;119357;-69
2022/06/28 00:54:41;;;;;;;7.30;5.47;;;;;;;16.84;58.70;101988.84;4895353;28;124204;-68
2022/06/28 00:57:08;;;;;;;8.10;5.80;;;;;;;16.84;58.72;101998.66;4893081;28;124742;-68
2022/06/28 00:59:35;;;;;;;9.98;5.95;;;;;;;16.84;58.86;101993.31;4907677;28;118569;-68
2022/06/28 01:02:04;;;;;;;8.20;6.25;;;;;;;16.83;58.99;101991.59;4905340;28;118168;-69
2022/06/28 01:04:32;;;;;;;6.53;5.72;;;;;;;16.82;58.96;101990.75;4889723;28;123596;-69
2022/06/28 01:07:00;;;;;;;8.25;6.25;;;;;;;16.83;58.97;101997.81;4907933;28;123277;-70
2022/06/28 01:09:29;;;;;;;7.55;5.63;;;;;;;16.81;58.95;101998.81;4906952;28;118983;-69
2022/06/28 01:11:57;;;;;;;6.97;5.90;;;;;;;16.79;59.10;102000.72;4897317;28;119278;-70
2022/06/28 01:14:24;;;;;;;8.13;5.93;;;;;;;16.78;59.20;102004.31;4893952;28;125124;-69
2022/06/28 01:17:00;;;;;;;7.65;5.78;;;;;;;16.77;59.24;101998.09;4908145;28;123264;-69
2022/06/28 01:19:48;;;;;;;7.13;5.47;;;;;;;16.77;59.17;102003.47;4894688;28;121355;-69
2022/06/28 01:22:40;;;;;;;7.55;5.40;;;;;;;16.74;59.21;102004.50;4895317;28;120071;-69
2022/06/28 01:25:11;;;;;;;7.10;5.97;;;;;;;16.73;59.20;102002.75;4891127;28;124527;-69
2022/06/28 01:27:42;;;;;;;7.60;6.15;;;;;;;16.72;59.22;102001.00;4899210;28;123951;-69
2022/06/28 01:30:10;;;;;;;7.53;6.25;;;;;;;16.71;59.46;102009.13;4903719;28;119885;-68
2022/06/28 01:33:02;;;;;;;8.35;5.88;;;;;;;16.69;59.45;102011.03;4919957;28;118225;-70
2022/06/28 01:35:33;;;;;;;9.30;6.20;;;;;;;16.69;59.54;102013.72;4891756;28;99495;-70
2022/06/28 01:38:01;;;;;;;8.32;6.10;;;;;;;16.68;59.65;102015.50;4900205;28;125797;-68
2022/06/28 01:40:29;;;;;;;7.03;5.60;;;;;;;16.68;59.67;102020.00;4899447;28;119599;-68
2022/06/28 01:42:57;;;;;;;8.73;6.20;;;;;;;16.68;59.79;102014.63;4892581;28;118141;-68
2022/06/28 01:45:24;;;;;;;9.10;6.38;;;;;;;16.68;59.85;102014.63;4902966;28;124317;-68
2022/06/28 01:47:52;;;;;;;7.72;6.10;;;;;;;16.69;59.85;102016.38;4905025;28;123129;-68
2022/06/28 01:50:38;;;;;;;8.20;5.88;;;;;;;16.69;59.94;102016.38;4898376;28;120283;-68
2022/06/28 01:53:06;;;;;;;8.63;5.75;;;;;;;16.69;60.03;102011.03;4904114;28;119131;-69
2022/06/28 01:55:54;;;;;;;9.00;6.05;;;;;;;16.68;60.12;102017.31;4906814;28;123194;-69
2022/06/28 01:58:42;;;;;;;8.10;6.13;;;;;;;16.68;60.08;102025.34;4906553;28;122651;-69
2022/06/28 02:01:10;;;;;;;8.68;6.40;;;;;;;16.68;60.16;102014.63;4907598;28;118513;-70
2022/06/28 02:03:38;;;;;;;6.75;5.30;;;;;;;16.68;60.19;102020.00;4908439;28;118467;-69
2022/06/28 02:06:26;;;;;;;7.55;5.82;;;;;;;16.69;60.21;102021.72;4890330;28;125107;-69
2022/06/28 02:08:59;;;;;;;7.75;5.28;;;;;;;16.70;60.10;102018.94;4896583;28;123039;-69
2022/06/28 02:11:33;;;;;;;6.53;5.63;;;;;;;16.68;59.93;102025.34;4922768;28;122995;-69
2022/06/28 02:14:01;;;;;;;7.13;5.47;;;;;;;16.69;60.17;102032.44;4897857;28;120784;-69
2022/06/28 02:16:28;;;;;;;8.60;5.38;;;;;;;16.67;60.12;102028.94;4896676;28;124820;-69
2022/06/28 02:18:55;;;;;;;6.93;5.55;;;;;;;16.66;60.06;102037.94;4903298;28;123076;-69
2022/06/28 02:21:23;;;;;;;7.82;5.68;;;;;;;16.65;60.19;102038.84;4922046;28;118668;-69
2022/06/28 02:23:51;;;;;;;8.27;5.68;;;;;;;16.66;60.39;102040.59;4889260;28;118407;-69
2022/06/28 02:26:18;;;;;;;7.35;5.68;;;;;;;16.64;60.29;102040.69;4906750;28;126509;-69
2022/06/28 02:28:45;;;;;;;8.00;5.38;;;;;;;16.64;60.35;102045.16;4904289;28;123641;-69
2022/06/28 02:31:14;;;;;;;6.82;5.30;;;;;;;16.63;60.37;102054.13;4898842;28;119514;-69
2022/06/28 02:33:42;;;;;;;11.20;5.47;;;;;;;16.60;60.31;102055.16;4907077;28;118686;-71
2022/06/28 02:41:41;;;;;;;7.35;5.28;;;;;;;16.55;60.05;102058.06;4893265;28;119311;-71
2022/06/28 02:44:09;;;;;;;8.15;5.45;;;;;;;16.54;60.21;102059.00;4889249;28;118923;-68
2022/06/28 02:46:36;;;;;;;7.30;4.88;;;;;;;16.53;60.32;102065.28;4907578;28;124199;-69
2022/06/28 02:49:06;;;;;;;7.30;5.20;;;;;;;16.52;60.31;102063.56;4895926;28;124663;-69
2022/06/28 02:51:33;;;;;;;10.25;4.97;;;;;;;16.51;60.29;102071.66;4911706;28;120036;-70
2022/06/28 02:54:01;;;;;;;10.32;5.43;;;;;;;16.50;60.50;102070.81;4896386;28;119622;-70
2022/06/28 02:56:28;;;;;;;5.85;4.90;;;;;;;16.50;60.43;102081.50;4907986;28;123258;-70
2022/06/28 02:58:55;;;;;;;6.63;5.03;;;;;;;16.50;60.43;102075.28;4900925;28;123971;-68
2022/06/28 03:01:22;;;;;;;6.68;4.70;;;;;;;16.49;60.43;102079.75;4897201;28;119419;-68
2022/06/28 03:03:50;;;;;;;6.90;5.05;;;;;;;16.49;60.52;102082.44;4907758;28;119705;-68
2022/06/28 03:06:17;;;;;;;6.38;5.05;;;;;;;16.49;60.38;102082.44;4909692;28;123307;-68
2022/06/28 03:08:44;;;;;;;5.97;4.70;;;;;;;16.49;60.34;102085.13;4906728;28;122767;-68
2022/06/28 03:11:12;;;;;;;7.50;5.30;;;;;;;16.48;60.56;102082.50;4922408;28;118811;-70
2022/06/28 03:13:39;;;;;;;8.20;5.30;;;;;;;16.48;60.32;102094.09;4909608;28;118003;-70
2022/06/28 03:16:06;;;;;;;6.60;4.57;;;;;;;16.46;60.44;102085.28;4899671;28;125266;-68
2022/06/28 03:18:33;;;;;;;7.22;4.85;;;;;;;16.46;60.25;102096.00;4899087;28;124252;-69
2022/06/28 03:21:00;;;;;;;5.43;4.50;;;;;;;16.44;60.51;102097.84;4904876;28;120208;-69
2022/06/28 03:23:27;;;;;;;5.88;4.60;;;;;;;16.44;60.39;102095.16;4903634;28;118357;-69
2022/06/28 03:25:55;;;;;;;7.28;4.65;;;;;;;16.43;60.42;102096.13;4902723;28;124645;-69
2022/06/28 03:28:22;;;;;;;6.32;4.97;;;;;;;16.40;60.51;102101.63;4901124;28;125080;-69
2022/06/28 03:30:54;;;;;;;6.72;4.35;;;;;;;16.40;60.54;102100.75;4894805;28;118824;-69
2022/06/28 03:33:21;;;;;;;8.73;4.40;;;;;;;16.38;60.57;102103.50;4898576;28;118938;-71
2022/06/28 03:35:49;;;;;;;8.07;4.28;;;;;;;16.38;60.51;102098.16;4923549;28;123924;-69
2022/06/28 03:38:20;;;;;;;7.40;4.40;;;;;;;16.36;60.62;102102.72;4901519;28;123964;-70
2022/06/28 03:41:02;;;;;;;5.47;4.30;;;;;;;16.35;60.52;102109.03;4897099;28;119541;-68
2022/06/28 03:43:30;;;;;;;7.88;4.43;;;;;;;16.35;60.62;102103.66;4905947;28;118515;-68
2022/06/28 03:45:58;;;;;;;5.45;4.47;;;;;;;16.35;60.67;102111.69;4893552;28;123417;-68
2022/06/28 03:48:56;;;;;;;6.55;4.57;;;;;;;16.34;60.70;102108.13;4896667;28;124008;-68
2022/06/28 03:51:48;;;;;;;6.28;4.60;;;;;;;16.34;60.68;102110.81;4922696;28;119700;-68
2022/06/28 03:54:27;;;;;;;6.93;4.18;;;;;;;16.34;60.77;102109.94;4892846;28;120075;-68
2022/06/28 03:57:20;;;;;;;6.85;4.38;;;;;;;16.34;60.46;102123.31;4896809;28;124059;-70
2022/06/28 03:59:47;;;;;;;6.15;4.40;;;;;;;16.32;60.68;102112.69;4922010;28;124331;-70
2022/06/28 04:02:14;;;;;;;5.50;4.15;;;;;;;16.31;60.63;102113.66;4908015;28;118514;-70
2022/06/28 04:04:41;;;;;;;7.80;4.18;;;;;;;16.31;60.70;102112.75;4897843;28;118128;-69
2022/06/28 04:07:10;;;;;;;6.15;4.18;;;;;;;16.32;60.66;102109.16;4907428;28;123128;-69
2022/06/28 04:09:38;;;;;;;6.75;4.05;;;;;;;16.33;60.65;102116.22;4898017;28;124062;-69
2022/06/28 04:12:06;;;;;;;8.07;4.05;;;;;;;16.34;60.77;102117.97;4903031;28;119040;-69
2022/06/28 04:14:33;;;;;;;6.68;4.45;;;;;;;16.36;60.68;102118.75;4904541;28;118291;-69
2022/06/28 04:17:01;;;;;;;7.10;4.10;;;;;;;16.37;60.79;102117.81;4922261;28;123224;-69
2022/06/28 04:19:44;;;;;;;5.68;4.10;;;;;;;16.38;60.70;102119.53;4908259;28;122899;-68
2022/06/28 04:22:14;;;;;;;7.07;4.93;;;;;;;16.39;60.74;102121.28;4906609;28;118945;-68
2022/06/28 04:24:41;;;;;;;5.65;4.20;;;;;;;16.40;60.75;102128.34;4901711;28;118282;-68
2022/06/28 04:27:14;;;;;;;5.82;4.13;;;;;;;16.42;60.65;102126.47;4906174;28;123105;-68
2022/06/28 04:29:42;;;;;;;6.03;4.53;;;;;;;16.44;60.70;102124.59;4890212;28;123040;-69
2022/06/28 04:32:25;;;;;;;6.03;4.07;;;;;;;16.46;60.51;102128.06;4907075;28;119197;-69
2022/06/28 04:34:57;;;;;;;6.43;3.80;;;;;;;16.47;60.65;102124.44;4902413;28;118097;-69
2022/06/28 04:37:25;;;;;;;6.03;4.18;;;;;;;16.48;60.69;102126.19;4903539;28;123200;-69
2022/06/28 04:39:54;;;;;;;6.03;4.20;;;;;;;16.48;60.63;102123.50;4906869;28;123144;-69
2022/06/28 04:42:26;;;;;;;6.13;4.22;;;;;;;16.50;60.79;102131.44;4906595;28;119819;-69
2022/06/28 04:44:54;;;;;;;7.00;4.10;;;;;;;16.53;60.73;102129.47;4909254;28;119141;-69
2022/06/28 04:47:29;;;;;;;9.67;4.37;;;;;;;16.55;60.78;102116.91;4909452;28;123176;-69
2022/06/28 04:49:57;;;;;;;6.90;4.18;;;;;;;16.64;61.10;102114.72;4901739;28;124630;-69
2022/06/28 04:52:24;;;;;;;7.25;3.85;;;;;;;16.74;61.50;102113.28;4923003;28;118391;-69
2022/06/28 04:54:54;;;;;;;4.18;3.45;;;;;;;16.86;61.61;102120.75;4906571;28;118160;-69
2022/06/28 04:57:39;;;;;;;6.75;3.80;;;;;;;17.05;61.70;102125.16;4924448;28;123120;-69
2022/06/28 05:00:11;;;;;;;6.72;3.90;;;;;;;17.21;61.50;102115.34;4905685;28;122994;-69
2022/06/28 05:02:46;;;;;;;;;;;;;;;17.36;61.10;102123.53;4905225;28;121598;-69
2022/06/28 05:05:36;;;;;;;6.25;3.60;;;;;;;17.52;61.00;102124.47;4902845;28;119249;-69
2022/06/28 05:08:03;;;;;;;5.68;3.58;;;;;;;17.63;60.53;102127.44;4899915;28;123915;-69
2022/06/28 05:10:41;;;;;;;6.45;4.07;;;;;;;17.68;60.24;102125.34;4907297;28;122961;-68
2022/06/28 05:13:23;;;;;;;6.95;3.88;;;;;;;17.75;59.71;102125.03;4902246;28;122084;-69
2022/06/28 05:15:51;;;;;;;5.72;4.13;;;;;;;17.78;59.58;102124.84;4906798;28;118343;-69
2022/06/28 05:18:18;;;;;;;7.22;4.05;;;;;;;17.78;59.28;102119.47;4899438;28;123179;-69
2022/06/28 05:20:45;;;;;;;6.97;4.25;;;;;;;17.78;59.34;102125.72;4901927;28;123713;-69
2022/06/28 05:23:12;;;;;;;9.60;4.65;;;;;;;17.78;59.26;102131.09;4907540;28;118137;-69
2022/06/28 05:25:59;;;;;;;5.82;3.67;;;;;;;17.79;59.34;102126.59;4899983;28;120043;-69
2022/06/28 05:28:27;;;;;;;7.20;4.35;;;;;;;17.83;59.20;102130.81;4905682;28;124004;-70
2022/06/28 05:30:55;;;;;;;7.32;3.92;;;;;;;17.82;59.05;102121.03;4903445;28;122835;-70
2022/06/28 05:33:23;;;;;;;6.82;4.07;;;;;;;17.83;59.07;102120.09;4903096;28;119341;-69
2022/06/28 05:35:51;;;;;;;6.05;3.55;;;;;;;17.83;59.24;102117.41;4905472;28;119464;-69
2022/06/28 05:38:18;;;;;;;5.95;4.15;;;;;;;17.85;59.30;102120.91;4894538;28;124750;-69
2022/06/28 05:40:47;;;;;;;6.53;3.55;;;;;;;17.87;59.12;102121.69;4905544;28;124334;-70
2022/06/28 05:43:14;;;;;;;7.82;3.47;;;;;;;17.89;59.05;102117.09;4922274;28;118476;-70
2022/06/28 05:45:41;;;;;;;9.02;3.70;;;;;;;17.91;59.08;102115.19;4900691;28;118201;-69
2022/06/28 05:48:09;;;;;;;6.25;3.30;;;;;;;17.97;59.23;102125.59;4904368;28;123824;-69
2022/06/28 05:50:36;;;;;;;7.40;3.78;;;;;;;18.02;59.12;102118.16;4901209;28;124033;-69
2022/06/28 05:53:03;;;;;;;7.28;3.47;;;;;;;18.07;59.15;102116.06;4905765;28;118366;-69
2022/06/28 05:55:31;;;;;;;6.40;3.33;;;;;;;18.14;59.20;102115.72;4903765;28;118083;-70
2022/06/28 05:57:58;;;;;;;7.13;3.55;;;;;;;18.19;59.00;102119.00;4920190;28;124524;-70
2022/06/28 06:00:25;;;;;;;4.88;3.30;;;;;;;18.23;59.07;102115.19;4876733;28;123121;-69
2022/06/28 06:02:54;;;;;;;6.57;3.10;;;;;;;18.28;58.70;102107.75;4903772;28;119430;-69
2022/06/28 06:05:21;;;;;;;6.40;3.83;;;;;;;18.35;58.71;102113.66;4897036;28;119622;-69
2022/06/28 06:07:49;;;;;;;5.20;3.38;;;;;;;18.39;58.83;102110.69;4918692;28;123170;-69
2022/06/28 06:10:16;;;;;;;8.05;3.20;;;;;;;18.44;58.48;102119.34;4904706;28;123366;-69
2022/06/28 06:12:43;;;;;;;7.95;3.38;;;;;;;18.48;58.18;102120.91;4900922;28;119170;-69
2022/06/28 06:15:11;;;;;;;7.60;3.65;;;;;;;18.52;58.42;102120.72;4895241;28;118812;-69
2022/06/28 06:17:38;;;;;;;8.10;3.70;;;;;;;18.59;58.31;102116.72;4902917;28;124481;-69
2022/06/28 06:20:08;;;;;;;8.75;3.13;;;;;;;18.69;58.18;102120.59;4897400;28;123963;-69
2022/06/28 06:22:36;;;;;;;9.00;3.85;;;;;;;18.78;58.03;102128.09;4898123;28;120509;-69
2022/06/28 06:25:16;;;;;;;6.20;3.22;;;;;;;18.89;58.15;102130.16;4903416;28;118841;-69
2022/06/28 06:27:44;;;;;;;9.95;3.63;;;;;;;19.03;58.02;102127.53;4905042;28;123274;-68
2022/06/28 06:30:12;;;;;;;6.60;3.47;;;;;;;19.20;58.13;102128.34;4907930;28;122986;-68
2022/06/28 06:32:46;;;;;;;10.18;3.40;;;;;;;19.38;57.92;102131.69;4889769;28;118399;-68
2022/06/28 06:35:32;;;;;;;5.93;3.80;;;;;;;19.53;57.75;102130.75;4906759;28;119898;-67
2022/06/28 06:38:02;;;;;;;5.32;3.00;;;;;;;19.69;57.67;102135.19;4907684;28;124278;-67
2022/06/28 06:40:31;;;;;;;6.18;3.72;;;;;;;19.84;57.27;102136.91;4905211;28;122951;-67
2022/06/28 06:42:58;;;;;;;6.72;3.40;;;;;;;19.99;57.04;102135.09;4906359;28;119104;-67
2022/06/28 06:45:25;;;;;;;8.05;3.33;;;;;;;20.12;57.05;102137.84;4907230;28;118255;-68
2022/06/28 06:47:52;;;;;;;8.80;3.72;;;;;;;20.25;56.69;102133.41;4907185;28;123280;-67
2022/06/28 06:50:21;;;;;;;7.65;3.28;;;;;;;20.37;56.34;102135.25;4907238;28;123029;-67
2022/06/28 06:52:48;;;;;;;7.78;3.50;;;;;;;20.50;56.12;102142.53;4905719;28;118106;-67
2022/06/28 06:55:16;;;;;;;7.60;3.67;;;;;;;20.63;56.28;102143.47;4906026;28;118111;-67
2022/06/28 06:57:44;;;;;;;8.75;3.50;;;;;;;20.77;55.96;102151.47;4905600;28;124598;-67
2022/06/28 07:00:12;;;;;;;7.68;3.33;;;;;;;20.96;55.71;102139.44;4911527;28;122909;-67
2022/06/28 07:02:40;;;;;;;7.40;3.00;;;;;;;21.12;54.97;102152.75;4906561;28;118359;-67
2022/06/28 07:05:09;;;;;;;10.77;3.45;;;;;;;21.28;54.75;102155.22;4905927;28;119048;-67
2022/06/28 07:07:37;;;;;;;9.10;3.28;;;;;;;21.42;54.48;102141.66;4890671;28;123180;-67
2022/06/28 07:10:06;;;;;;;5.95;3.30;;;;;;;21.55;53.92;102153.34;4901044;28;123081;-67
2022/06/28 07:12:33;;;;;;;6.82;3.08;;;;;;;21.66;53.74;102157.97;4907745;28;119424;-67
2022/06/28 07:15:00;;;;;;;5.80;2.85;;;;;;;21.79;53.36;102155.25;4908193;28;119163;-68
2022/06/28 07:17:33;;;;;;;7.65;3.10;;;;;;;21.90;53.21;102155.31;4907307;28;124222;-67
2022/06/28 07:20:01;;;;;;;6.82;2.63;;;;;;;22.03;53.20;102158.00;4908453;28;123655;-68
2022/06/28 07:22:28;;;;;;;5.43;2.20;;;;;;;22.17;52.60;102149.78;4903174;28;118277;-66
2022/06/28 07:24:59;;;;;;;5.80;2.13;;;;;;;22.31;52.40;102156.88;4923124;28;118746;-68
2022/06/28 07:27:27;;;;;;;5.80;2.03;;;;;;;22.46;51.90;102154.88;4907689;28;124050;-69
2022/06/28 07:29:54;;;;;;;365.15;31.65;;;;;;;22.59;51.12;102160.22;4906465;28;123601;-68
2022/06/28 07:32:22;;;;;;;10.15;2.60;;;;;;;22.70;51.19;102157.56;4906656;28;118141;-67
2022/06/28 07:34:49;;;;;;;8.07;2.60;;;;;;;22.86;51.08;102153.69;4910493;28;118120;-69
2022/06/28 07:37:16;;;;;;;6.68;2.10;;;;;;;23.00;50.48;102148.09;4906114;28;124344;-68
2022/06/28 07:39:46;;;;;;;6.97;2.25;;;;;;;23.15;50.14;102156.91;4904802;28;122934;-68
2022/06/28 07:42:32;;;;;;;2.95;1.70;;;;;;;23.28;49.26;102156.78;4912914;28;120302;-69
2022/06/28 07:45:18;;;;;;;6.03;2.10;;;;;;;23.36;48.72;102154.34;4911595;28;119677;-70
2022/06/28 07:47:47;;;;;;;5.10;1.48;;;;;;;23.41;48.60;102152.13;4910234;28;123496;-69
2022/06/28 07:53:12;;;;;;;5.60;1.65;;;;;;;23.61;48.01;102157.81;4927468;28;118979;-70
2022/06/28 07:56:05;;;;;;;3.67;1.50;;;;;;;23.71;48.29;102147.97;4900212;28;119535;-68
2022/06/28 07:58:36;;;;;;;5.55;1.88;;;;;;;23.81;47.76;102149.00;4909742;28;123592;-72
2022/06/28 08:01:09;;;;;;;6.35;1.88;;;;;;;23.93;47.05;102149.00;4910450;28;123001;-71
2022/06/28 08:03:36;;;;;;;4.13;1.70;;;;;;;23.98;47.43;102149.47;4925634;28;119407;-68
2022/06/28 08:06:04;;;;;;;7.78;1.80;;;;;;;24.09;47.25;102141.31;4891324;28;119000;-70
2022/06/28 08:08:40;;;;;;;3.92;1.55;;;;;;;24.21;46.82;102140.31;4903177;28;123264;-70
2022/06/28 08:11:08;;;;;;;3.35;1.40;;;;;;;24.31;46.03;102128.75;4897467;28;123484;-68
2022/06/28 08:13:37;;;;;;;5.05;1.40;;;;;;;24.38;46.06;102127.25;4909526;28;119168;-68
2022/06/28 08:16:05;;;;;;;4.47;1.67;;;;;;;24.48;45.73;102128.19;4909409;28;119328;-68
2022/06/28 08:18:32;;;;;;;4.50;1.60;;;;;;;24.59;45.20;102133.59;4909202;28;123414;-68
2022/06/28 08:20:59;;;;;;;3.85;1.35;;;;;;;24.66;45.17;102129.38;4910613;28;122788;-68
2022/06/28 08:23:27;;;;;;;3.88;1.40;;;;;;;24.74;45.42;102130.59;4926171;28;118418;-68
2022/06/28 08:25:54;;;;;;;3.63;1.30;;;;;;;24.82;45.07;102128.06;4894433;28;118358;-68
2022/06/28 08:28:21;;;;;;;3.25;1.55;;;;;;;24.93;44.88;102119.88;4908790;28;123279;-68
2022/06/28 08:30:49;;;;;;;4.15;1.35;;;;;;;25.01;44.51;102122.78;4907577;28;123034;-68
2022/06/28 08:33:16;;;;;;;5.53;1.30;;;;;;;25.06;44.11;102120.53;4909139;28;119162;-67
2022/06/28 08:35:43;;;;;;;4.00;1.45;;;;;;;25.14;43.64;102116.31;4910482;28;118111;-68
2022/06/28 08:38:11;;;;;;;4.25;1.30;;;;;;;25.21;43.59;102112.06;4910373;28;125158;-68
2022/06/28 08:40:39;;;;;;;4.47;1.10;;;;;;;25.26;43.44;102109.84;4911256;28;124636;-68
2022/06/28 08:43:07;;;;;;;3.47;0.88;;;;;;;25.32;42.77;102109.31;4903298;28;119707;-68
2022/06/28 08:45:35;;;;;;;3.60;1.05;;;;;;;25.35;42.79;102109.00;4909989;28;119336;-68
2022/06/28 08:48:39;;;;;;;3.13;1.10;;;;;;;25.39;43.27;102109.59;4908311;28;124082;-68
2022/06/28 08:51:08;;;;;;;3.45;1.10;;;;;;;25.44;42.28;102100.06;4892549;28;122814;-68
2022/06/28 08:53:38;;;;;;;3.30;1.30;;;;;;;25.48;42.32;102097.09;4908173;28;120348;-68
2022/06/28 08:56:08;;;;;;;3.55;1.00;;;;;;;25.53;42.24;102100.25;4902833;28;120055;-68
2022/06/28 08:58:36;;;;;;;5.38;1.20;;;;;;;25.56;41.71;102094.53;4903290;28;123971;-68
2022/06/28 09:01:03;;;;;;;4.25;0.98;;;;;;;25.56;42.03;102097.25;4910260;28;122852;-68
2022/06/28 09:03:31;;;;;;;6.13;1.13;;;;;;;25.59;42.13;102095.13;4908407;28;119283;-68
2022/06/28 09:05:58;;;;;;;3.90;1.20;;;;;;;25.63;42.22;102106.56;4911490;28;118621;-68
2022/06/28 09:08:26;;;;;;;2.70;1.00;;;;;;;25.63;41.95;102101.16;4908978;28;123032;-68
2022/06/28 09:10:53;;;;;;;3.92;1.10;;;;;;;25.64;41.44;102102.88;4909814;28;123924;-68
2022/06/28 09:13:21;;;;;;;3.67;1.25;;;;;;;25.66;41.56;102100.88;4910304;28;118627;-68
2022/06/28 09:15:58;;;;;;;2.53;1.20;;;;;;;25.68;41.18;102098.88;4905031;28;119383;-68
2022/06/28 09:18:35;;;;;;;5.28;1.15;;;;;;;25.70;41.44;102086.03;4901596;28;124800;-68
2022/06/28 09:21:06;;;;;;;2.72;0.98;;;;;;;25.80;41.57;102092.34;4922627;28;124687;-68
2022/06/28 09:23:36;;;;;;;4.25;1.10;;;;;;;25.91;41.71;102093.25;4910361;28;119250;-67
2022/06/28 09:26:10;;;;;;;2.17;1.10;;;;;;;26.00;40.93;102087.00;4908196;28;119084;-67
2022/06/28 09:28:47;;;;;;;1.58;0.90;;;;;;;26.06;40.41;102080.16;4907439;28;124086;-68
2022/06/28 09:31:28;;;;;;;3.65;1.13;;;;;;;26.09;40.57;102083.47;4909352;28;125615;-68
2022/06/28 09:34:02;;;;;;;4.32;1.10;;;;;;;26.10;40.52;102087.88;4910121;28;119135;-68
2022/06/28 09:37:00;;;;;;;4.13;1.00;;;;;;;26.16;40.72;102079.19;4910782;28;118773;-68
2022/06/28 09:39:28;;;;;;;4.95;1.10;;;;;;;26.26;41.27;102081.03;4895401;28;123868;-68
2022/06/28 09:41:57;;;;;;;3.65;1.40;;;;;;;26.34;40.84;102078.47;4909368;28;123876;-67
2022/06/28 09:44:53;;;;;;;4.53;1.70;;;;;;;26.36;39.80;102071.88;4910087;28;120528;-67
2022/06/28 09:47:20;;;;;;;2.50;0.98;;;;;;;26.39;40.42;102076.16;4907989;28;120505;-68
2022/06/28 09:49:51;;;;;;;3.88;1.00;;;;;;;26.41;40.55;102076.91;4909039;28;125154;-68
2022/06/28 09:52:23;;;;;;;2.58;1.00;;;;;;;26.45;40.26;102072.91;4908447;28;124439;-67
2022/06/28 09:54:54;;;;;;;3.00;0.98;;;;;;;26.51;40.45;102069.59;4909598;28;119416;-68
2022/06/28 09:57:22;;;;;;;3.00;0.70;;;;;;;26.57;40.54;102063.56;4907784;28;119001;-68
2022/06/28 09:59:50;;;;;;;2.20;0.98;;;;;;;26.65;40.32;102065.59;4909802;28;124380;-68
2022/06/28 10:02:18;;;;;;;4.15;0.90;;;;;;;26.70;40.37;102057.88;4907297;28;123761;-67
2022/06/28 10:04:45;;;;;;;2.80;1.00;;;;;;;26.74;40.22;102055.72;4907277;28;119705;-67
2022/06/28 10:07:14;;;;;;;6.65;1.17;;;;;;;26.76;39.77;102045.56;4907565;28;118778;-67
2022/06/28 10:09:42;;;;;;;2.22;0.90;;;;;;;26.76;40.10;102046.41;4902120;28;124673;-67
2022/06/28 10:15:02;;;;;;;2.53;0.80;;;;;;;26.82;39.80;102058.56;4907459;28;119620;-67
2022/06/28 10:17:48;;;;;;;2.53;0.82;;;;;;;26.85;39.57;102055.56;4905629;28;119526;-67
2022/06/28 10:20:20;;;;;;;3.58;1.00;;;;;;;26.87;39.29;102058.16;4889570;28;123536;-68
2022/06/28 10:22:48;;;;;;;2.67;0.85;;;;;;;26.87;39.48;102048.13;4892304;28;123765;-67
2022/06/28 10:25:24;;;;;;;3.00;0.80;;;;;;;26.91;40.06;102044.09;4907385;28;119488;-68
2022/06/28 10:27:52;;;;;;;2.30;0.93;;;;;;;26.99;38.81;102038.78;4906905;28;119551;-67
2022/06/28 10:30:25;;;;;;;2.67;0.80;;;;;;;27.00;38.86;102048.66;4909841;28;123844;-68
2022/06/28 10:33:02;;;;;;;2.53;1.00;;;;;;;26.99;38.47;102035.19;4906955;28;124159;-67
2022/06/28 10:35:34;;;;;;;1.98;1.00;;;;;;;26.97;38.62;102038.09;4908567;28;120367;-67
2022/06/28 10:38:08;;;;;;;1.77;0.73;;;;;;;27.04;38.54;102030.19;4907393;28;119896;-67
2022/06/28 10:40:39;;;;;;;4.22;0.90;;;;;;;27.13;38.63;102031.16;4908130;28;124041;-67
2022/06/28 10:43:33;;;;;;;2.33;0.90;;;;;;;27.22;38.80;102019.38;4905777;28;123846;-67
2022/06/28 10:46:00;;;;;;;4.55;1.40;;;;;;;27.32;39.13;102014.78;4910203;28;119930;-67
2022/06/28 10:48:29;;;;;;;2.47;1.10;;;;;;;27.43;39.29;102015.59;4906387;28;119028;-67
2022/06/28 10:50:58;;;;;;;3.63;0.80;;;;;;;27.55;38.66;102014.38;4908165;28;124108;-67
2022/06/28 10:53:26;;;;;;;3.33;1.00;;;;;;;27.63;38.23;102019.91;4901916;28;124348;-67
2022/06/28 10:56:12;;;;;;;2.92;0.80;;;;;;;27.68;38.51;102009.41;4896149;28;119060;-67
2022/06/28 10:58:59;;;;;;;3.22;1.00;;;;;;;27.74;38.03;102008.78;4901283;28;118938;-68
2022/06/28 11:01:39;;;;;;;2.47;0.70;;;;;;;27.79;38.21;102004.78;4900338;28;124482;-69
2022/06/28 11:04:23;;;;;;;3.55;1.05;;;;;;;27.85;38.34;102004.16;4909672;28;123731;-69
2022/06/28 11:06:55;;;;;;;4.00;0.90;;;;;;;27.89;37.63;102000.13;4910595;28;119921;-69
2022/06/28 11:09:31;;;;;;;2.20;0.90;;;;;;;27.93;37.71;101996.09;4906121;28;119582;-69
2022/06/28 11:12:07;;;;;;;2.55;0.80;;;;;;;27.99;37.82;101992.75;4907866;28;124338;-69
2022/06/28 11:14:49;;;;;;;1.42;0.75;;;;;;;28.02;38.25;101995.16;4905565;28;124589;-69
2022/06/28 11:17:26;;;;;;;3.17;1.00;;;;;;;28.11;38.01;101982.47;4904936;28;119414;-68
2022/06/28 11:20:01;;;;;;;2.28;0.93;;;;;;;28.14;37.53;101983.03;4900019;28;117895;-68
2022/06/28 11:22:32;;;;;;;2.45;0.90;;;;;;;28.11;37.48;101983.31;4909105;28;124775;-68
2022/06/28 11:25:02;;;;;;;2.85;1.00;;;;;;;27.98;36.14;101982.03;4909616;28;122920;-69
2022/06/28 11:27:32;;;;;;;3.35;1.00;;;;;;;27.87;36.21;101980.34;4908446;28;120158;-68
2022/06/28 11:29:59;;;;;;;2.20;0.80;;;;;;;27.81;36.58;101978.25;4910710;28;121217;-68
2022/06/28 11:32:31;;;;;;;3.30;0.70;;;;;;;27.83;36.53;101984.41;4910289;28;124066;-68
2022/06/28 11:35:05;;;;;;;3.22;0.80;;;;;;;27.89;36.52;101978.34;4909548;28;123919;-68
2022/06/28 11:38:02;;;;;;;2.75;1.00;;;;;;;27.99;37.11;101967.38;4909145;28;119300;-68
2022/06/28 11:40:38;;;;;;;2.00;0.90;;;;;;;28.09;36.77;101974.47;4899838;28;118839;-68
2022/06/28 11:43:08;;;;;;;3.70;0.85;;;;;;;28.20;36.62;101969.75;4910570;28;123823;-68
2022/06/28 11:45:38;;;;;;;2.88;0.80;;;;;;;28.26;36.60;101964.56;4910629;28;122690;-68
2022/06/28 11:48:08;;;;;;;2.55;1.23;;;;;;;28.37;36.83;101966.19;4911211;28;119551;-68